Time;durP1;ratioP1;P1;durP2;ratioP2;P2;SDS_P1;SDS_P2;PMS_P1;PMS_P2;Temp;Humidity;BMP_temperature;BMP_pressure;BME280_temperature;BME280_humidity;BME280_pressure;Samples;Min_cycle;Max_cycle;Signal;HPM_P1;HPM_P2
2022/09/15 00:02:12;;;;;;;5.88;2.67;;;25.00;1.00;;;;;;5027437;28;20069;-60
2022/09/15 00:04:37;;;;;;;8.10;2.78;;;25.00;1.00;;;;;;5030767;28;20079;-60
2022/09/15 00:07:03;;;;;;;6.80;2.85;;;25.00;1.00;;;;;;5030476;28;20037;-60
2022/09/15 00:09:29;;;;;;;6.13;2.67;;;25.00;1.00;;;;;;5030407;28;20036;-60
2022/09/15 00:11:55;;;;;;;6.80;2.50;;;25.00;1.00;;;;;;5029836;28;20779;-60
2022/09/15 00:14:21;;;;;;;3.65;2.38;;;25.00;1.00;;;;;;5031214;28;20042;-60
2022/09/15 00:16:46;;;;;;;13.38;3.42;;;25.10;1.00;;;;;;5031411;28;20036;-60
2022/09/15 00:19:12;;;;;;;5.50;2.95;;;25.00;1.00;;;;;;5032196;28;20032;-61
2022/09/15 00:21:40;;;;;;;6.70;2.85;;;25.00;1.00;;;;;;5037108;28;20483;-60
2022/09/15 00:24:06;;;;;;;5.40;2.50;;;25.00;1.00;;;;;;5023699;28;20096;-60
2022/09/15 00:26:31;;;;;;;8.05;3.25;;;25.00;1.00;;;;;;5029257;28;20059;-60
2022/09/15 00:28:58;;;;;;;5.63;2.90;;;25.00;1.00;;;;;;5030763;28;20029;-60
2022/09/15 00:31:26;;;;;;;7.32;2.42;;;25.00;1.00;;;;;;5039802;28;20037;-60
2022/09/15 00:33:54;;;;;;;8.85;2.60;;;25.00;1.00;;;;;;5030434;28;20021;-60
2022/09/15 00:36:21;;;;;;;6.70;2.53;;;25.00;1.00;;;;;;5030692;28;20034;-60
2022/09/15 00:38:47;;;;;;;6.50;2.92;;;25.00;1.00;;;;;;5029765;28;20926;-61
2022/09/15 00:41:15;;;;;;;6.07;2.70;;;24.90;1.00;;;;;;5040189;28;20476;-61
2022/09/15 00:43:55;;;;;;;8.45;2.97;;;24.90;1.00;;;;;;5031383;28;20029;-61
2022/09/15 00:46:27;;;;;;;6.60;2.65;;;24.90;1.00;;;;;;5028337;28;20032;-61
2022/09/15 00:48:58;;;;;;;8.52;2.90;;;24.80;1.00;;;;;;5022669;28;20451;-61
2022/09/15 00:51:49;;;;;;;5.70;3.20;;;24.90;1.00;;;;;;5027929;28;20037;-61
2022/09/15 00:54:27;;;;;;;8.93;2.65;;;24.90;1.00;;;;;;5025155;28;20030;-61
2022/09/15 00:56:56;;;;;;;4.75;2.30;;;24.80;1.00;;;;;;5032948;28;20025;-60
2022/09/15 00:59:25;;;;;;;11.13;3.03;;;24.80;1.00;;;;;;5035284;28;20017;-61
2022/09/15 01:02:01;;;;;;;7.65;2.55;;;24.80;1.00;;;;;;5031186;28;20049;-61
2022/09/15 01:04:27;;;;;;;8.02;3.25;;;24.80;1.00;;;;;;5034513;28;20030;-61
2022/09/15 01:06:59;;;;;;;6.15;2.75;;;24.80;1.00;;;;;;5035435;28;20033;-61
2022/09/15 01:09:29;;;;;;;9.10;3.13;;;24.70;1.00;;;;;;5029198;28;20100;-60
2022/09/15 01:11:55;;;;;;;8.50;2.90;;;24.80;1.00;;;;;;5036526;28;20474;-61
2022/09/15 01:14:21;;;;;;;7.53;3.05;;;24.70;1.00;;;;;;5034582;28;20077;-61
2022/09/15 01:16:59;;;;;;;12.35;2.80;;;24.80;1.00;;;;;;5040008;28;20139;-61
2022/09/15 01:19:32;;;;;;;6.55;2.30;;;24.70;1.00;;;;;;5031815;28;20091;-61
2022/09/15 01:22:47;;;;;;;6.32;3.13;;;24.80;1.00;;;;;;5034080;28;20037;-61
2022/09/15 01:25:31;;;;;;;13.68;3.65;;;24.80;1.00;;;;;;5033958;28;20476;-60
2022/09/15 01:28:18;;;;;;;6.22;2.70;;;24.80;1.00;;;;;;5038695;28;20033;-61
2022/09/15 01:30:57;;;;;;;7.80;2.50;;;24.80;1.00;;;;;;5033294;28;20064;-60
2022/09/15 01:33:58;;;;;;;5.15;2.42;;;24.70;1.00;;;;;;5032106;28;20033;-60
2022/09/15 01:36:32;;;;;;;7.20;2.70;;;24.60;1.00;;;;;;5022418;28;20043;-61
2022/09/15 01:39:09;;;;;;;;;;;24.70;1.00;;;;;;5032623;28;20117;-61
2022/09/15 01:41:41;;;;;;;5.68;2.95;;;24.70;1.00;;;;;;5033484;28;19917;-61
2022/09/15 01:44:23;;;;;;;8.95;2.88;;;24.60;1.00;;;;;;5046310;28;20021;-61
2022/09/15 01:46:54;;;;;;;6.57;2.83;;;24.60;1.00;;;;;;5036780;28;20029;-61
2022/09/15 01:49:25;;;;;;;9.20;2.63;;;24.60;1.00;;;;;;5033627;28;20029;-61
2022/09/15 01:51:52;;;;;;;8.43;2.92;;;24.60;1.00;;;;;;5039938;28;20029;-60
2022/09/15 01:54:40;;;;;;;7.05;2.40;;;24.60;1.00;;;;;;5035263;28;20052;-61
2022/09/15 01:57:06;;;;;;;8.38;2.85;;;24.70;1.00;;;;;;5043954;28;20029;-61
2022/09/15 01:59:33;;;;;;;7.10;2.70;;;24.50;1.00;;;;;;5031237;28;20140;-61
2022/09/15 02:02:06;;;;;;;9.35;2.35;;;24.50;1.00;;;;;;5032991;28;20047;-60
2022/09/15 02:05:00;;;;;;;9.55;2.55;;;24.60;1.00;;;;;;5046985;28;20041;-61
2022/09/15 02:07:44;;;;;;;6.75;2.40;;;24.60;1.00;;;;;;5041186;28;20032;-61
2022/09/15 02:10:16;;;;;;;8.35;2.30;;;24.50;1.00;;;;;;5031329;28;20034;-61
2022/09/15 02:12:52;;;;;;;5.63;2.20;;;24.50;1.00;;;;;;5031159;28;20076;-61
2022/09/15 02:15:28;;;;;;;4.50;2.45;;;24.50;1.00;;;;;;5032410;28;20502;-60
2022/09/15 02:17:54;;;;;;;11.63;2.80;;;24.50;1.00;;;;;;5032224;28;20029;-61
2022/09/15 02:20:40;;;;;;;9.65;2.20;;;24.40;1.00;;;;;;5033742;28;20040;-61
2022/09/15 02:23:14;;;;;;;5.55;2.50;;;24.50;1.00;;;;;;5025106;28;20068;-61
2022/09/15 02:25:50;;;;;;;6.38;2.95;;;24.50;1.00;;;;;;5033072;28;20107;-61
2022/09/15 02:28:18;;;;;;;5.85;2.97;;;24.40;1.00;;;;;;5034167;28;20079;-61
2022/09/15 02:30:45;;;;;;;9.93;3.53;;;24.40;1.00;;;;;;5030654;28;20034;-60
2022/09/15 02:33:16;;;;;;;5.43;2.70;;;24.30;1.00;;;;;;5031861;28;20391;-61
2022/09/15 02:35:42;;;;;;;7.78;3.00;;;24.40;1.00;;;;;;5035760;28;20032;-61
2022/09/15 02:38:09;;;;;;;9.50;2.90;;;24.40;1.00;;;;;;5032118;28;20037;-61
2022/09/15 02:40:38;;;;;;;7.05;2.67;;;24.30;1.00;;;;;;5032466;28;20071;-61
2022/09/15 02:43:08;;;;;;;7.93;2.53;;;24.40;1.00;;;;;;5032125;28;20053;-61
2022/09/15 02:45:34;;;;;;;14.32;2.72;;;24.30;1.00;;;;;;5033986;28;20040;-61
2022/09/15 02:48:00;;;;;;;7.38;3.25;;;24.30;1.00;;;;;;5035570;28;20484;-60
2022/09/15 02:50:26;;;;;;;9.85;4.05;;;24.30;1.00;;;;;;5032251;28;20052;-60
2022/09/15 02:52:53;;;;;;;8.98;2.90;;;24.30;1.00;;;;;;5031496;28;20106;-61
2022/09/15 02:55:18;;;;;;;7.72;3.90;;;24.20;1.00;;;;;;5033035;28;20109;-61
2022/09/15 02:57:44;;;;;;;11.25;3.72;;;24.10;1.00;;;;;;5033183;28;20558;-60
2022/09/15 03:00:13;;;;;;;7.97;3.90;;;24.10;1.00;;;;;;5033166;28;20036;-61
2022/09/15 03:02:40;;;;;;;8.98;3.15;;;24.10;1.00;;;;;;5028335;28;20049;-61
2022/09/15 03:05:08;;;;;;;7.32;2.88;;;24.10;1.00;;;;;;5030321;28;20103;-61
2022/09/15 03:07:34;;;;;;;6.20;3.03;;;24.10;1.00;;;;;;5037604;28;20040;-61
2022/09/15 03:10:00;;;;;;;9.48;3.50;;;24.10;1.00;;;;;;5030335;28;20088;-61
2022/09/15 03:12:25;;;;;;;7.63;3.42;;;24.00;1.00;;;;;;5029342;28;20026;-61
2022/09/15 03:14:51;;;;;;;8.75;3.17;;;24.00;1.00;;;;;;5029343;28;20041;-61
2022/09/15 03:17:17;;;;;;;9.50;3.13;;;24.00;1.00;;;;;;5030265;28;20514;-61
2022/09/15 03:19:43;;;;;;;6.95;3.47;;;24.00;1.00;;;;;;5031454;28;20017;-61
2022/09/15 03:22:09;;;;;;;9.05;3.83;;;24.00;1.00;;;;;;5032323;28;20049;-61
2022/09/15 03:24:36;;;;;;;10.90;3.90;;;23.90;1.00;;;;;;5032585;28;20026;-61
2022/09/15 03:27:03;;;;;;;6.82;3.45;;;23.90;1.00;;;;;;5037835;28;20397;-61
2022/09/15 03:29:28;;;;;;;10.75;3.25;;;23.90;1.00;;;;;;5034318;28;20060;-61
2022/09/15 03:31:54;;;;;;;8.70;3.50;;;23.90;1.00;;;;;;5036439;28;20025;-61
2022/09/15 03:34:20;;;;;;;7.45;4.13;;;23.80;1.00;;;;;;5033094;28;20018;-61
2022/09/15 03:36:45;;;;;;;10.27;3.95;;;23.80;1.00;;;;;;5034262;28;20029;-61
2022/09/15 03:39:11;;;;;;;5.70;3.90;;;23.90;1.00;;;;;;5032993;28;20024;-61
2022/09/15 03:41:37;;;;;;;7.68;3.30;;;23.80;1.00;;;;;;5030877;28;20184;-61
2022/09/15 03:44:03;;;;;;;5.07;3.08;;;23.70;1.00;;;;;;5033154;28;20519;-61
2022/09/15 03:46:29;;;;;;;7.47;3.88;;;23.70;1.00;;;;;;5032774;28;20022;-61
2022/09/15 03:48:58;;;;;;;9.50;3.78;;;23.70;1.00;;;;;;5030919;28;20140;-61
2022/09/15 03:51:24;;;;;;;6.93;3.50;;;23.70;1.00;;;;;;5021575;28;20759;-60
2022/09/15 03:53:50;;;;;;;12.00;3.63;;;23.70;1.00;;;;;;5031836;28;20028;-61
2022/09/15 03:56:31;;;;;;;7.50;3.50;;;23.70;1.00;;;;;;5031836;28;20029;-61
2022/09/15 03:58:58;;;;;;;8.85;3.50;;;23.70;1.00;;;;;;5031998;28;20110;-61
2022/09/15 04:01:24;;;;;;;7.38;3.45;;;23.60;1.00;;;;;;5036228;28;20567;-61
2022/09/15 04:03:50;;;;;;;9.35;4.00;;;23.60;1.00;;;;;;5035496;28;20032;-61
2022/09/15 04:06:18;;;;;;;8.52;3.75;;;23.60;1.00;;;;;;5031877;28;20383;-61
2022/09/15 04:08:43;;;;;;;7.97;3.67;;;23.50;1.00;;;;;;5030462;28;20032;-61
2022/09/15 04:11:11;;;;;;;6.68;3.60;;;23.50;1.00;;;;;;5029704;28;20391;-61
2022/09/15 04:13:38;;;;;;;8.55;3.75;;;23.50;1.00;;;;;;5030536;28;20032;-61
2022/09/15 04:16:06;;;;;;;9.88;3.63;;;23.40;1.00;;;;;;5029445;28;20044;-61
2022/09/15 04:18:32;;;;;;;8.65;4.35;;;23.40;1.00;;;;;;5036446;28;20098;-61
2022/09/15 04:21:00;;;;;;;13.95;4.82;;;23.30;1.00;;;;;;5034164;28;20080;-61
2022/09/15 04:23:26;;;;;;;8.50;4.53;;;23.40;1.00;;;;;;5042141;28;20037;-61
2022/09/15 04:25:57;;;;;;;8.60;4.65;;;23.40;1.00;;;;;;5024702;28;20398;-61
2022/09/15 04:28:24;;;;;;;12.15;5.07;;;23.40;1.00;;;;;;5028014;28;20437;-61
2022/09/15 04:30:51;;;;;;;8.95;5.10;;;23.40;1.00;;;;;;5030956;28;20041;-61
2022/09/15 04:33:17;;;;;;;8.10;4.65;;;23.40;1.00;;;;;;5032827;28;20033;-61
2022/09/15 04:35:42;;;;;;;11.63;4.20;;;23.30;1.00;;;;;;5030602;28;20048;-62
2022/09/15 04:38:08;;;;;;;9.15;5.20;;;23.30;1.00;;;;;;5030389;28;20113;-61
2022/09/15 04:40:33;;;;;;;11.00;4.97;;;23.40;1.00;;;;;;5036542;28;20391;-61
2022/09/15 04:42:59;;;;;;;8.27;4.03;;;23.30;1.00;;;;;;5039128;28;20063;-61
2022/09/15 04:45:26;;;;;;;8.65;4.57;;;23.40;1.00;;;;;;5032027;28;20517;-62
2022/09/15 04:47:52;;;;;;;9.23;4.30;;;23.40;1.00;;;;;;5029610;28;20025;-61
2022/09/15 04:50:18;;;;;;;11.50;4.88;;;23.30;1.00;;;;;;5031106;28;20030;-61
2022/09/15 04:52:43;;;;;;;11.38;4.93;;;23.30;1.00;;;;;;5030633;28;20060;-61
2022/09/15 04:55:09;;;;;;;11.70;4.82;;;23.30;1.00;;;;;;5031750;28;20527;-61
2022/09/15 04:57:35;;;;;;;10.00;4.32;;;23.30;1.00;;;;;;5030396;28;20045;-61
2022/09/15 05:00:04;;;;;;;13.10;4.85;;;23.30;1.00;;;;;;5032155;28;20021;-61
2022/09/15 05:02:30;;;;;;;13.60;4.65;;;23.30;1.00;;;;;;5028086;28;20091;-61
2022/09/15 05:04:55;;;;;;;8.95;4.53;;;23.30;1.00;;;;;;5025692;28;20021;-61
2022/09/15 05:07:21;;;;;;;10.40;4.85;;;23.30;1.00;;;;;;5028597;28;20133;-61
2022/09/15 05:09:50;;;;;;;11.95;5.05;;;23.30;1.00;;;;;;5032132;28;20022;-61
2022/09/15 05:12:16;;;;;;;10.15;5.28;;;23.30;1.00;;;;;;5026996;28;20033;-60
2022/09/15 05:14:41;;;;;;;9.55;5.10;;;23.30;1.00;;;;;;5027774;28;20459;-61
2022/09/15 05:17:07;;;;;;;8.80;4.50;;;23.30;1.00;;;;;;5036084;28;20075;-60
2022/09/15 05:19:33;;;;;;;12.20;5.25;;;23.30;1.00;;;;;;5032011;28;20013;-61
2022/09/15 05:21:58;;;;;;;8.82;4.85;;;23.30;1.00;;;;;;5034074;28;20037;-61
2022/09/15 05:24:24;;;;;;;12.13;5.07;;;23.30;1.00;;;;;;5035772;28;20021;-62
2022/09/15 05:26:49;;;;;;;13.43;5.90;;;23.30;1.00;;;;;;5032037;28;20033;-61
2022/09/15 05:29:15;;;;;;;12.05;5.82;;;23.20;1.00;;;;;;5039315;28;20022;-61
2022/09/15 05:31:40;;;;;;;11.55;5.47;;;23.20;1.00;;;;;;5028689;28;20191;-60
2022/09/15 05:34:15;;;;;;;12.27;6.53;;;23.10;1.00;;;;;;5026071;28;20044;-60
2022/09/15 05:36:41;;;;;;;9.90;5.90;;;23.00;1.00;;;;;;5029826;28;20021;-61
2022/09/15 05:39:06;;;;;;;10.23;6.25;;;23.10;1.00;;;;;;5032688;28;20080;-62
2022/09/15 05:41:32;;;;;;;13.15;7.30;;;23.20;1.00;;;;;;5031821;28;20045;-61
2022/09/15 05:43:58;;;;;;;11.02;8.15;;;23.00;1.00;;;;;;5033931;28;20415;-60
2022/09/15 05:46:27;;;;;;;14.98;8.50;;;23.10;1.00;;;;;;5032642;28;20044;-60
2022/09/15 05:48:55;;;;;;;13.45;8.07;;;23.10;1.00;;;;;;5032656;28;20053;-60
2022/09/15 05:51:21;;;;;;;12.48;7.30;;;23.10;1.00;;;;;;5034376;28;20104;-62
2022/09/15 05:53:48;;;;;;;11.50;7.35;;;23.00;1.00;;;;;;5029217;28;20184;-61
2022/09/15 05:56:16;;;;;;;15.40;8.30;;;23.00;1.00;;;;;;5032570;28;20040;-60
2022/09/15 05:58:43;;;;;;;16.20;8.80;;;23.00;1.00;;;;;;5033862;28;20475;-61
2022/09/15 06:01:21;;;;;;;17.40;9.23;;;23.00;1.00;;;;;;5033964;28;20033;-61
2022/09/15 06:03:47;;;;;;;12.05;7.90;;;23.00;1.00;;;;;;5043851;28;20022;-61
2022/09/15 06:06:14;;;;;;;10.27;7.18;;;22.90;1.00;;;;;;5029917;28;20101;-60
2022/09/15 06:08:42;;;;;;;10.48;8.23;;;22.90;1.00;;;;;;5032054;28;20400;-60
2022/09/15 06:11:14;;;;;;;15.23;8.75;;;22.90;1.00;;;;;;5032393;28;20063;-61
2022/09/15 06:13:40;;;;;;;11.02;8.57;;;22.80;1.00;;;;;;5031125;28;20029;-61
2022/09/15 06:16:18;;;;;;;12.07;8.70;;;22.90;1.00;;;;;;5032852;28;20040;-60
2022/09/15 06:18:44;;;;;;;16.27;8.45;;;22.80;1.00;;;;;;5029171;28;20367;-62
2022/09/15 06:21:09;;;;;;;15.52;8.55;;;22.80;1.00;;;;;;5034262;28;20072;-61
2022/09/15 06:23:36;;;;;;;12.60;8.00;;;22.80;1.00;;;;;;5036737;28;20057;-61
2022/09/15 06:26:14;;;;;;;12.00;9.43;;;22.80;1.00;;;;;;5031421;28;20047;-61
2022/09/15 06:28:41;;;;;;;16.27;10.05;;;22.90;1.00;;;;;;5032179;28;20030;-61
2022/09/15 06:31:13;;;;;;;21.00;10.07;;;22.80;1.00;;;;;;5032837;28;20100;-60
2022/09/15 06:33:44;;;;;;;16.40;10.55;;;22.90;1.00;;;;;;5034768;28;20035;-60
2022/09/15 06:36:14;;;;;;;13.95;9.82;;;22.90;1.00;;;;;;5031309;28;20383;-61
2022/09/15 06:38:41;;;;;;;17.15;9.43;;;22.90;1.00;;;;;;5031219;28;20028;-60
2022/09/15 06:41:07;;;;;;;12.02;9.68;;;22.90;1.00;;;;;;5024443;28;20033;-60
2022/09/15 06:43:33;;;;;;;16.10;10.00;;;22.80;1.00;;;;;;5033454;28;20102;-61
2022/09/15 06:46:19;;;;;;;13.50;9.93;;;22.70;1.00;;;;;;5032123;28;20045;-60
2022/09/15 06:48:45;;;;;;;14.48;10.55;;;22.80;1.00;;;;;;5022712;28;20112;-61
2022/09/15 06:51:12;;;;;;;17.45;10.60;;;22.80;1.00;;;;;;5033448;28;20403;-62
2022/09/15 06:53:38;;;;;;;18.50;10.85;;;22.80;1.00;;;;;;5032081;28;20351;-61
2022/09/15 06:56:08;;;;;;;16.33;10.80;;;22.80;1.00;;;;;;5033057;28;20033;-61
2022/09/15 06:58:35;;;;;;;16.65;11.85;;;22.90;1.00;;;;;;5036670;28;20148;-61
2022/09/15 07:04:22;;;;;;;15.75;11.52;;;22.80;1.00;;;;;;5024219;28;20114;-62
2022/09/15 07:06:49;;;;;;;14.50;12.45;;;22.80;1.00;;;;;;5032532;28;20479;-62
2022/09/15 07:09:15;;;;;;;13.90;12.25;;;22.80;1.00;;;;;;5038508;28;20033;-61
2022/09/15 07:11:40;;;;;;;13.68;12.38;;;22.80;1.00;;;;;;5033537;28;20083;-63
2022/09/15 07:14:06;;;;;;;15.05;11.30;;;22.90;1.00;;;;;;5032531;28;20478;-62
2022/09/15 07:16:32;;;;;;;19.15;14.10;;;22.90;1.00;;;;;;5033348;28;20430;-62
2022/09/15 07:19:00;;;;;;;14.38;12.43;;;23.00;1.00;;;;;;5039590;28;20028;-63
2022/09/15 07:21:26;;;;;;;17.77;12.32;;;23.00;1.00;;;;;;5033274;28;20112;-61
2022/09/15 07:23:55;;;;;;;16.77;11.48;;;23.00;1.00;;;;;;5031187;28;20497;-62
2022/09/15 07:26:28;;;;;;;13.73;10.45;;;23.10;1.00;;;;;;5035773;28;20034;-62
2022/09/15 07:28:55;;;;;;;16.08;11.43;;;23.10;1.00;;;;;;5041697;28;20043;-62
2022/09/15 07:31:23;;;;;;;19.20;11.15;;;23.10;1.00;;;;;;5033245;28;20025;-62
2022/09/15 07:33:49;;;;;;;19.10;11.90;;;23.20;1.00;;;;;;5032291;28;20061;-62
2022/09/15 07:36:15;;;;;;;14.57;10.45;;;23.30;1.00;;;;;;5033173;28;20021;-62
2022/09/15 07:38:44;;;;;;;17.55;11.68;;;23.30;1.00;;;;;;5036652;28;20156;-62
2022/09/15 07:41:23;;;;;;;10.68;9.57;;;23.30;1.00;;;;;;5033061;28;20468;-62
2022/09/15 07:43:54;;;;;;;18.08;11.05;;;23.30;1.00;;;;;;5042529;28;20041;-61
2022/09/15 07:46:21;;;;;;;15.90;10.07;;;23.40;1.00;;;;;;5036487;28;20021;-62
2022/09/15 07:48:49;;;;;;;13.95;10.60;;;23.40;1.00;;;;;;5031277;28;20033;-62
2022/09/15 07:51:15;;;;;;;15.10;10.25;;;23.40;1.00;;;;;;5021262;28;20037;-62
2022/09/15 07:53:42;;;;;;;12.00;10.02;;;23.50;1.00;;;;;;5040596;28;20360;-62
2022/09/15 07:56:08;;;;;;;14.55;9.93;;;23.50;1.00;;;;;;5032861;28;20049;-62
2022/09/15 07:58:34;;;;;;;16.27;9.60;;;23.60;1.00;;;;;;5024451;28;20080;-60
2022/09/15 08:01:01;;;;;;;15.77;9.50;;;23.60;1.00;;;;;;5031043;28;20367;-61
2022/09/15 08:03:27;;;;;;;18.90;9.40;;;23.60;1.00;;;;;;5031139;28;20041;-61
2022/09/15 08:05:59;;;;;;;11.55;8.30;;;23.60;1.00;;;;;;5032245;28;20138;-61
2022/09/15 08:08:26;;;;;;;15.10;8.93;;;23.70;1.00;;;;;;5036642;28;20486;-61
2022/09/15 08:10:51;;;;;;;13.90;8.65;;;23.70;1.00;;;;;;5036739;28;20013;-61
2022/09/15 08:13:17;;;;;;;10.88;7.13;;;23.70;1.00;;;;;;5031506;28;20133;-62
2022/09/15 08:15:43;;;;;;;13.00;8.18;;;23.80;1.00;;;;;;5032338;28;20041;-61
2022/09/15 08:18:10;;;;;;;10.60;7.70;;;23.90;1.00;;;;;;5034713;28;20100;-60
2022/09/15 08:20:39;;;;;;;10.63;8.10;;;23.90;1.00;;;;;;5040586;28;20030;-61
2022/09/15 08:23:05;;;;;;;18.33;8.48;;;24.00;1.00;;;;;;5031120;28;20042;-61
2022/09/15 08:25:31;;;;;;;11.60;8.10;;;24.00;1.00;;;;;;5031097;28;20029;-61
2022/09/15 08:27:58;;;;;;;9.35;6.85;;;24.00;1.00;;;;;;5030461;28;20068;-61
2022/09/15 08:30:24;;;;;;;12.23;5.68;;;24.10;1.00;;;;;;5030189;28;20463;-61
2022/09/15 08:32:50;;;;;;;13.25;5.90;;;24.10;1.00;;;;;;5031643;28;20029;-61
2022/09/15 08:35:16;;;;;;;9.05;5.70;;;24.10;1.00;;;;;;5045703;28;20024;-62
2022/09/15 08:37:42;;;;;;;15.32;9.00;;;24.20;1.00;;;;;;5031760;28;20355;-62
2022/09/15 08:40:22;;;;;;;14.57;8.10;;;24.20;1.00;;;;;;5041022;28;20120;-62
2022/09/15 08:42:50;;;;;;;14.77;7.35;;;24.20;1.00;;;;;;5031237;28;20037;-62
2022/09/15 08:45:23;;;;;;;10.43;7.00;;;24.20;1.00;;;;;;5022415;28;20052;-62
2022/09/15 08:47:57;;;;;;;11.43;7.38;;;24.40;1.00;;;;;;5031186;28;20022;-61
2022/09/15 08:50:42;;;;;;;12.82;6.45;;;24.40;1.00;;;;;;5021054;28;20036;-62
2022/09/15 08:53:26;;;;;;;12.90;7.05;;;24.40;1.00;;;;;;5030248;28;20129;-62
2022/09/15 08:55:53;;;;;;;13.38;8.18;;;24.50;1.00;;;;;;5032002;28;20140;-63
2022/09/15 08:58:31;;;;;;;15.52;7.50;;;24.50;1.00;;;;;;5034705;28;20029;-63
2022/09/15 09:01:18;;;;;;;11.05;7.00;;;24.50;1.00;;;;;;5038910;28;20029;-63
2022/09/15 09:04:06;;;;;;;11.45;7.05;;;24.60;1.00;;;;;;5014474;28;20509;-61
2022/09/15 09:06:56;;;;;;;11.43;6.35;;;24.60;1.00;;;;;;5034259;28;20034;-61
2022/09/15 09:09:51;;;;;;;10.27;5.85;;;24.60;1.00;;;;;;5031096;28;20382;-62
2022/09/15 09:12:26;;;;;;;13.45;7.32;;;24.70;1.00;;;;;;5043073;28;20040;-61
2022/09/15 09:15:10;;;;;;;13.98;5.88;;;24.80;1.00;;;;;;5031032;28;20050;-61
2022/09/15 09:17:38;;;;;;;11.95;5.80;;;24.90;1.00;;;;;;5035982;28;20040;-62
2022/09/15 09:20:16;;;;;;;9.55;5.47;;;24.90;1.00;;;;;;5034143;28;20029;-62
2022/09/15 09:22:44;;;;;;;7.32;4.53;;;25.00;1.00;;;;;;5034212;28;20483;-62
2022/09/15 09:25:16;;;;;;;12.82;4.28;;;25.00;1.00;;;;;;5034874;28;20336;-61
2022/09/15 09:27:42;;;;;;;10.98;5.15;;;25.00;1.00;;;;;;5034627;28;20079;-61
2022/09/15 09:30:17;;;;;;;9.95;4.40;;;25.20;1.00;;;;;;5034477;28;20512;-61
2022/09/15 09:33:01;;;;;;;10.68;4.55;;;25.10;1.00;;;;;;5034042;28;20063;-61
2022/09/15 09:35:43;;;;;;;8.40;4.90;;;25.20;1.00;;;;;;5032564;28;20032;-61
2022/09/15 09:38:11;;;;;;;12.38;4.90;;;25.30;1.00;;;;;;5034521;28;20026;-61
2022/09/15 09:40:40;;;;;;;5.40;3.50;;;25.30;1.00;;;;;;5035202;28;20111;-62
2022/09/15 09:43:06;;;;;;;7.55;3.83;;;25.40;1.00;;;;;;5032283;28;20040;-62
2022/09/15 09:45:32;;;;;;;8.20;4.57;;;25.50;1.00;;;;;;5043102;28;20066;-62
2022/09/15 09:48:33;;;;;;;5.80;3.83;;;25.50;1.00;;;;;;5034947;28;20029;-62
2022/09/15 09:50:59;;;;;;;9.20;4.18;;;25.50;1.00;;;;;;5038694;28;20056;-62
2022/09/15 09:53:35;;;;;;;7.32;3.20;;;25.60;1.00;;;;;;5032272;28;20088;-62
2022/09/15 09:56:16;;;;;;;8.40;3.60;;;25.60;1.00;;;;;;5035345;28;20021;-62
2022/09/15 09:58:42;;;;;;;7.78;3.70;;;25.70;1.00;;;;;;5033932;28;20093;-61
2022/09/15 10:01:14;;;;;;;9.75;3.75;;;25.70;1.00;;;;;;5034712;28;20021;-62
2022/09/15 10:03:42;;;;;;;7.38;3.97;;;25.70;1.00;;;;;;5037552;28;20037;-62
2022/09/15 10:06:15;;;;;;;11.35;4.35;;;25.80;1.00;;;;;;5037521;28;20049;-62
2022/09/15 10:08:57;;;;;;;8.07;5.07;;;25.90;1.00;;;;;;5033788;28;20040;-62
2022/09/15 10:11:49;;;;;;;8.20;4.15;;;25.90;1.00;;;;;;5034498;28;20412;-62
2022/09/15 10:14:25;;;;;;;13.55;4.53;;;25.90;1.00;;;;;;5033339;28;20053;-61
2022/09/15 10:17:16;;;;;;;6.55;4.10;;;26.20;1.00;;;;;;5021985;28;20009;-61
2022/09/15 10:19:41;;;;;;;9.40;3.90;;;26.20;1.00;;;;;;5034203;28;20040;-62
2022/09/15 10:22:07;;;;;;;8.07;3.92;;;26.20;1.00;;;;;;5034492;28;20038;-61
2022/09/15 10:24:40;;;;;;;8.55;4.32;;;26.20;1.00;;;;;;5032318;28;20428;-62
2022/09/15 10:27:26;;;;;;;10.32;4.82;;;26.30;1.00;;;;;;5032650;28;20033;-62
2022/09/15 10:29:53;;;;;;;9.48;5.85;;;26.40;1.00;;;;;;5035064;28;20038;-62
2022/09/15 10:32:27;;;;;;;9.27;4.22;;;26.50;1.00;;;;;;5034003;28;20049;-62
2022/09/15 10:35:02;;;;;;;7.75;4.00;;;26.50;1.00;;;;;;5029352;28;20325;-61
2022/09/15 10:37:50;;;;;;;8.82;4.07;;;26.80;1.00;;;;;;5033177;28;20395;-61
2022/09/15 10:40:34;;;;;;;9.40;3.92;;;26.70;1.00;;;;;;5036419;28;20029;-61
2022/09/15 10:43:29;;;;;;;8.10;4.55;;;26.80;1.00;;;;;;5035693;28;20037;-62
2022/09/15 10:46:03;;;;;;;8.35;3.67;;;26.80;1.00;;;;;;5028702;28;20116;-61
2022/09/15 10:49:01;;;;;;;6.63;3.47;;;26.80;1.00;;;;;;5033092;28;20184;-62
2022/09/15 10:51:56;;;;;;;5.90;4.00;;;26.90;1.00;;;;;;5021784;28;20042;-62
2022/09/15 10:54:51;;;;;;;9.40;4.35;;;26.80;1.00;;;;;;5037718;28;20118;-62
2022/09/15 10:57:38;;;;;;;14.02;4.13;;;26.90;1.00;;;;;;5034066;28;20034;-62
2022/09/15 11:00:27;;;;;;;5.32;3.47;;;27.00;1.00;;;;;;5032460;28;20029;-62
2022/09/15 11:03:17;;;;;;;9.77;3.85;;;27.00;1.00;;;;;;5033595;28;20048;-62
2022/09/15 11:06:14;;;;;;;6.75;3.25;;;27.10;1.00;;;;;;5030763;28;20030;-62
2022/09/15 11:09:04;;;;;;;9.82;3.83;;;27.20;1.00;;;;;;5024214;28;20025;-62
2022/09/15 11:11:45;;;;;;;11.77;3.60;;;27.20;1.00;;;;;;5035288;28;20127;-62
2022/09/15 11:14:36;;;;;;;8.70;3.70;;;27.20;1.00;;;;;;5032677;28;20076;-62
2022/09/15 11:17:18;;;;;;;9.52;3.22;;;27.40;1.00;;;;;;5033786;28;20045;-62
2022/09/15 11:20:19;;;;;;;7.18;3.63;;;27.40;1.00;;;;;;5041018;28;20037;-63
2022/09/15 11:23:01;;;;;;;9.35;3.60;;;27.20;1.00;;;;;;5024194;28;20403;-62
2022/09/15 11:25:31;;;;;;;8.57;3.20;;;27.30;1.00;;;;;;5032481;28;20021;-62
2022/09/15 11:28:16;;;;;;;8.10;3.60;;;27.60;1.00;;;;;;5033199;28;20152;-63
2022/09/15 11:31:01;;;;;;;8.13;3.72;;;27.60;1.00;;;;;;5036881;28;20049;-62
2022/09/15 11:33:45;;;;;;;;;;;27.70;1.00;;;;;;5037293;28;20069;-62
2022/09/15 11:36:16;;;;;;;7.72;3.63;;;27.80;1.00;;;;;;5035678;28;19915;-62
2022/09/15 11:38:48;;;;;;;9.02;3.55;;;27.80;1.00;;;;;;5036728;28;20033;-62
2022/09/15 11:41:23;;;;;;;7.97;3.30;;;27.90;1.00;;;;;;5034058;28;20036;-62
2022/09/15 11:43:59;;;;;;;7.57;3.50;;;28.00;1.00;;;;;;5034810;28;20045;-62
2022/09/15 11:46:56;;;;;;;4.88;2.70;;;28.00;1.00;;;;;;5032635;28;20039;-63
2022/09/15 11:49:44;;;;;;;7.32;3.92;;;28.10;1.00;;;;;;5032409;28;20033;-62
2022/09/15 11:52:21;;;;;;;10.23;4.22;;;28.20;1.00;;;;;;5028301;28;20045;-62
2022/09/15 11:55:22;;;;;;;7.32;3.10;;;28.20;1.00;;;;;;5032706;28;20009;-62
2022/09/15 11:58:00;;;;;;;4.97;2.83;;;28.30;1.00;;;;;;5010019;28;20034;-62
2022/09/15 12:00:26;;;;;;;10.50;4.38;;;28.40;1.00;;;;;;5030211;28;20131;-62
2022/09/15 12:03:35;;;;;;;10.60;4.35;;;28.40;1.00;;;;;;5031782;28;20072;-62
2022/09/15 12:06:11;;;;;;;6.78;3.55;;;28.50;1.00;;;;;;5031707;28;20530;-62
2022/09/15 12:08:42;;;;;;;5.63;3.13;;;28.70;1.00;;;;;;5031266;28;20022;-62
2022/09/15 12:11:17;;;;;;;9.23;3.50;;;28.90;1.00;;;;;;5031486;28;20052;-62
2022/09/15 12:13:44;;;;;;;7.10;3.70;;;28.90;1.00;;;;;;5032331;28;20045;-62
2022/09/15 12:16:11;;;;;;;10.32;3.85;;;28.90;1.00;;;;;;5031628;28;20063;-62
2022/09/15 12:18:44;;;;;;;5.75;3.55;;;28.90;1.00;;;;;;5032383;28;20022;-62
2022/09/15 12:21:32;;;;;;;9.38;3.60;;;29.30;1.00;;;;;;5031957;28;20038;-62
2022/09/15 12:24:16;;;;;;;7.55;3.58;;;29.70;1.00;;;;;;5019924;28;20052;-62
2022/09/15 12:26:42;;;;;;;8.02;3.58;;;30.40;1.00;;;;;;5031444;28;20452;-62
2022/09/15 12:29:26;;;;;;;9.00;4.10;;;35.90;1.00;;;;;;5032237;28;20108;-62
2022/09/15 12:32:26;;;;;;;7.80;3.42;;;39.90;1.00;;;;;;5036069;28;20119;-62
2022/09/15 12:35:16;;;;;;;6.65;4.15;;;42.20;1.00;;;;;;5032103;28;20112;-63
2022/09/15 12:37:46;;;;;;;7.38;4.55;;;41.30;1.00;;;;;;5031819;28;20026;-63
2022/09/15 12:40:26;;;;;;;4.80;3.70;;;43.90;1.00;;;;;;5032015;28;20057;-63
2022/09/15 12:42:52;;;;;;;5.38;4.13;;;45.30;1.00;;;;;;5036990;28;20067;-63
2022/09/15 12:45:27;;;;;;;6.88;4.30;;;45.90;1.00;;;;;;5032652;28;20061;-61
2022/09/15 12:48:01;;;;;;;5.95;4.50;;;45.70;99.90;;;;;;5042478;28;20025;-62
2022/09/15 12:50:31;;;;;;;9.50;4.50;;;45.70;99.90;;;;;;5035194;28;20035;-62
2022/09/15 12:52:58;;;;;;;9.30;4.70;;;46.00;99.90;;;;;;5037812;28;20018;-62
2022/09/15 12:55:27;;;;;;;6.22;5.00;;;47.80;99.90;;;;;;5038491;28;20387;-62
2022/09/15 12:57:56;;;;;;;8.27;5.22;;;48.10;99.90;;;;;;5050142;28;20031;-62
2022/09/15 13:00:40;;;;;;;7.18;5.90;;;48.50;99.90;;;;;;5037671;28;20041;-62
2022/09/15 13:03:27;;;;;;;8.23;6.03;;;48.10;99.90;;;;;;5035633;28;20083;-65
2022/09/15 13:06:20;;;;;;;7.32;6.07;;;49.20;99.90;;;;;;5037167;28;20075;-62
2022/09/15 13:08:46;;;;;;;7.75;5.95;;;48.60;99.90;;;;;;5026156;28;20103;-62
2022/09/15 13:11:16;;;;;;;6.60;5.95;;;48.80;99.90;;;;;;5037668;28;20052;-62
2022/09/15 13:14:05;;;;;;;8.05;5.45;;;48.40;99.90;;;;;;5038002;28;20018;-62
2022/09/15 13:16:51;;;;;;;7.40;5.22;;;48.30;99.90;;;;;;5037384;28;20514;-62
2022/09/15 13:19:32;;;;;;;6.88;5.95;;;47.70;99.90;;;;;;5038565;28;20386;-62
2022/09/15 13:22:22;;;;;;;6.35;5.72;;;47.60;99.90;;;;;;5037174;28;20045;-62
2022/09/15 13:25:06;;;;;;;5.47;4.97;;;48.90;99.90;;;;;;5038368;28;20017;-62